Time;durP1;ratioP1;P1;durP2;ratioP2;P2;SDS_P1;SDS_P2;PMS_P1;PMS_P2;Temp;Humidity;BMP_temperature;BMP_pressure;BME280_temperature;BME280_humidity;BME280_pressure;Samples;Min_cycle;Max_cycle;Signal;HPM_P1;HPM_P2
2022/10/24 00:00:32;;;;;;;10.50;5.70;;;;;;;-141.97;62.53;47515.22;4996568;28;20226;-82
2022/10/24 00:03:02;;;;;;;14.53;5.60;;;;;;;-141.97;62.69;47559.44;4996398;28;20163;-81
2022/10/24 00:05:34;;;;;;;9.50;5.00;;;;;;;-141.97;62.63;47532.53;4996302;28;20167;-81
2022/10/24 00:08:03;;;;;;;8.93;5.07;;;;;;;-141.97;63.13;47538.28;4978586;28;20167;-82
2022/10/24 00:10:35;;;;;;;10.10;5.60;;;;;;;-141.97;63.53;47570.97;4996833;28;20171;-81
2022/10/24 00:13:04;;;;;;;11.47;5.57;;;;;;;-141.97;63.60;47569.06;4996915;28;20215;-81
2022/10/24 00:15:34;;;;;;;10.17;5.30;;;;;;;-141.97;63.56;47572.91;4996602;28;20191;-81
2022/10/24 00:18:04;;;;;;;9.47;5.00;;;;;;;-141.97;63.72;47522.91;4996150;28;20156;-81
2022/10/24 00:20:37;;;;;;;8.97;5.33;;;;;;;-141.97;63.45;47565.22;4996857;28;20540;-80
2022/10/24 00:23:04;;;;;;;8.83;4.50;;;;;;;-141.97;63.16;47540.22;4996896;28;20163;-83
2022/10/24 00:25:35;;;;;;;9.80;4.90;;;;;;;-141.97;62.67;47557.53;4996138;28;20171;-81
2022/10/24 00:28:05;;;;;;;8.10;4.43;;;;;;;-141.97;62.16;47565.22;4996347;28;20180;-81
2022/10/24 00:30:35;;;;;;;9.97;4.90;;;;;;;-141.97;62.14;47544.06;4996718;28;20173;-82
2022/10/24 00:33:06;;;;;;;10.87;5.00;;;;;;;-141.97;61.70;47569.06;4996667;28;20179;-81
2022/10/24 00:35:36;;;;;;;7.67;4.93;;;;;;;-141.97;61.21;47580.59;4995929;28;20227;-81
2022/10/24 00:38:06;;;;;;;8.90;4.70;;;;;;;-141.97;60.81;47551.75;4995624;28;20560;-82
2022/10/24 00:40:41;;;;;;;24.77;12.13;;;;;;;-141.97;60.55;47572.91;4995611;28;20168;-81
2022/10/24 00:43:18;;;;;;;46.43;22.57;;;;;;;-141.97;59.92;47565.22;4995055;28;20171;-82
2022/10/24 00:45:57;;;;;;;35.00;21.43;;;;;;;-141.97;60.18;47553.69;4995150;28;20163;-81
2022/10/24 00:48:27;;;;;;;41.07;23.77;;;;;;;-141.97;60.13;47569.06;4994942;28;20179;-81
2022/10/24 00:50:56;;;;;;;69.40;39.10;;;;;;;-141.97;59.77;47542.16;4994972;28;20168;-81
2022/10/24 00:53:24;;;;;;;75.47;40.23;;;;;;;-141.97;59.92;47547.91;4994939;28;20171;-81
2022/10/24 00:55:53;;;;;;;25.80;13.43;;;;;;;-141.97;59.87;47580.59;4993423;28;20188;-80
2022/10/24 00:58:21;;;;;;;12.43;6.20;;;;;;;-141.97;60.76;47524.84;4994807;28;20233;-82
2022/10/24 01:00:46;;;;;;;8.80;5.03;;;;;;;-141.97;61.19;47557.53;4994661;28;20164;-81
2022/10/24 01:03:11;;;;;;;9.77;6.00;;;;;;;-141.97;60.74;47572.91;4994898;28;20222;-81
2022/10/24 01:06:14;;;;;;;16.87;9.30;;;;;;;-141.97;60.70;47570.97;4994771;28;20597;-82
2022/10/24 01:09:03;;;;;;;58.67;31.30;;;;;;;-141.97;60.59;47563.28;4994762;28;20175;-82
2022/10/24 01:12:03;;;;;;;66.87;38.10;;;;;;;-141.97;60.71;47570.97;4994670;28;20168;-81
2022/10/24 01:15:01;;;;;;;70.77;39.50;;;;;;;-141.97;60.29;47549.84;4995486;28;20797;-81
2022/10/24 01:17:39;;;;;;;89.63;45.57;;;;;;;-141.97;60.42;47547.91;4999824;28;20181;-80
2022/10/24 01:20:19;;;;;;;53.43;28.87;;;;;;;-141.97;60.90;47565.22;4994945;28;20171;-80
2022/10/24 01:23:12;;;;;;;52.43;28.30;;;;;;;-141.97;61.53;47574.81;4994510;28;20163;-81
2022/10/24 01:26:10;;;;;;;28.23;15.93;;;;;;;-141.97;61.76;47557.53;4994851;28;20171;-81
2022/10/24 01:29:00;;;;;;;10.80;5.80;;;;;;;-141.97;61.42;47565.22;4994708;28;20160;-80
2022/10/24 01:31:41;;;;;;;7.77;4.97;;;;;;;-141.97;61.72;47547.91;4994014;28;20163;-81
2022/10/24 01:34:18;;;;;;;10.40;5.17;;;;;;;-141.97;61.65;47669.00;4977214;28;20198;-81
2022/10/24 01:36:55;;;;;;;10.20;5.17;;;;;;;-141.97;61.58;47586.34;4994136;28;20159;-81
2022/10/24 01:39:25;;;;;;;10.67;5.03;;;;;;;-141.97;61.71;47595.97;4993925;28;20233;-81
2022/10/24 01:41:55;;;;;;;7.97;5.33;;;;;;;-141.97;62.20;47561.38;4994342;28;20573;-80
2022/10/24 01:44:27;;;;;;;9.33;5.17;;;;;;;-141.97;62.09;47576.75;4993889;28;20258;-81
2022/10/24 01:46:58;;;;;;;9.97;5.23;;;;;;;-141.97;62.06;47561.38;4993890;28;20171;-80
2022/10/24 01:49:28;;;;;;;8.83;5.20;;;;;;;-141.97;61.93;47592.13;4994344;28;20198;-80
2022/10/24 01:52:00;;;;;;;9.40;5.60;;;;;;;-141.97;61.82;47561.38;4994500;28;20206;-79
2022/10/24 01:54:27;;;;;;;8.67;5.50;;;;;;;-141.97;62.03;47570.97;4994901;28;20225;-81
2022/10/24 01:56:52;;;;;;;9.93;5.67;;;;;;;-141.97;61.63;47659.38;4994374;28;20226;-80
2022/10/24 01:59:29;;;;;;;8.10;5.33;;;;;;;-141.97;61.67;47563.28;4994270;28;20671;-81
2022/10/24 02:02:07;;;;;;;10.10;5.40;;;;;;;-141.97;62.17;47565.22;4993971;28;20162;-81
2022/10/24 02:04:37;;;;;;;8.90;4.90;;;;;;;-141.97;61.48;47609.41;4993878;28;20168;-82
2022/10/24 02:07:07;;;;;;;8.10;5.10;;;;;;;-141.97;61.85;47603.66;4993652;28;20168;-81
2022/10/24 02:09:36;;;;;;;8.30;5.23;;;;;;;-141.97;62.46;47569.06;4993569;28;20174;-81
2022/10/24 02:12:03;;;;;;;9.07;5.53;;;;;;;-141.97;62.40;47557.53;4993607;28;20178;-82
2022/10/24 02:14:44;;;;;;;9.50;5.27;;;;;;;-141.97;62.45;47565.22;4991788;28;20219;-81
2022/10/24 02:17:16;;;;;;;9.50;5.27;;;;;;;-141.97;62.54;47492.16;4994206;28;20163;-82
2022/10/24 02:19:46;;;;;;;9.40;5.50;;;;;;;-141.97;62.66;47542.16;4993904;28;20151;-82
2022/10/24 02:22:34;;;;;;;11.60;5.43;;;;;;;-141.97;62.66;47588.28;4993828;28;20160;-82
2022/10/24 02:25:06;;;;;;;9.07;5.50;;;;;;;-141.97;63.05;47557.53;4993421;28;20188;-81
2022/10/24 02:27:40;;;;;;;9.27;5.77;;;;;;;-141.97;63.70;47580.59;4993083;28;20175;-81
2022/10/24 02:30:10;;;;;;;8.97;5.17;;;;;;;-141.97;64.14;47592.13;4993300;28;20246;-81
2022/10/24 02:32:40;;;;;;;9.20;5.13;;;;;;;-141.97;64.30;47567.13;4993543;28;20167;-81
2022/10/24 02:35:08;;;;;;;10.50;5.13;;;;;;;-141.97;64.25;47565.22;4993004;28;20735;-81
2022/10/24 02:37:38;;;;;;;10.43;5.20;;;;;;;-141.97;64.69;47530.59;4993782;28;20171;-81
2022/10/24 02:40:07;;;;;;;9.23;5.10;;;;;;;-141.97;64.43;47607.50;4993071;28;20195;-81
2022/10/24 02:42:34;;;;;;;10.70;4.80;;;;;;;-141.97;64.78;47522.91;4993272;28;20191;-81
2022/10/24 02:45:00;;;;;;;8.83;4.93;;;;;;;-141.97;65.44;47599.81;4993502;28;20158;-81
2022/10/24 02:47:28;;;;;;;8.30;4.70;;;;;;;-141.97;65.66;47619.03;4993625;28;20238;-81
2022/10/24 02:49:54;;;;;;;11.43;5.50;;;;;;;-141.97;65.29;47546.00;4996264;28;20305;-77
2022/10/24 02:52:22;;;;;;;9.57;5.30;;;;;;;-141.97;64.97;47565.22;5002944;28;20164;-81
2022/10/24 02:54:49;;;;;;;8.60;5.67;;;;;;;-141.97;64.86;47557.53;4993481;28;20183;-82
2022/10/24 02:57:20;;;;;;;8.57;5.40;;;;;;;-141.97;64.98;47569.06;4993415;28;20175;-81
2022/10/24 02:59:52;;;;;;;11.73;5.43;;;;;;;-141.97;64.69;47561.38;4993060;28;20163;-82
2022/10/24 03:02:19;;;;;;;11.40;5.60;;;;;;;-141.97;65.13;47576.75;4993109;28;20242;-82
2022/10/24 03:04:49;;;;;;;9.50;5.30;;;;;;;-141.97;65.08;47584.44;4993689;28;20167;-81
2022/10/24 03:07:20;;;;;;;11.20;6.30;;;;;;;-141.97;65.17;47576.75;4972627;28;20654;-81
2022/10/24 03:09:50;;;;;;;12.03;6.00;;;;;;;-141.97;65.35;47586.34;4991418;28;20183;-81
2022/10/24 03:12:21;;;;;;;18.20;10.10;;;;;;;-141.97;64.95;47570.97;4992812;28;20168;-82
2022/10/24 03:14:51;;;;;;;30.83;15.63;;;;;;;-141.97;65.18;47595.97;4992691;28;20228;-82
2022/10/24 03:17:22;;;;;;;72.50;34.00;;;;;;;-141.97;64.67;47588.28;4993191;28;20254;-80
2022/10/24 03:19:51;;;;;;;152.83;57.80;;;;;;;-141.97;64.62;47555.59;4998412;28;20334;-81
2022/10/24 03:22:28;;;;;;;98.83;41.63;;;;;;;-141.97;64.63;47595.97;4997979;28;20646;-81
2022/10/24 03:24:54;;;;;;;57.73;28.50;;;;;;;-141.97;65.33;47570.97;4978503;28;20651;-82
2022/10/24 03:27:22;;;;;;;98.77;39.93;;;;;;;-141.97;65.17;47578.66;4997084;28;20163;-83
2022/10/24 03:29:53;;;;;;;77.47;34.30;;;;;;;-141.97;64.97;47574.81;4997342;28;20656;-82
2022/10/24 03:32:22;;;;;;;102.43;39.37;;;;;;;-141.97;64.93;47557.53;4997051;28;20170;-82
2022/10/24 03:34:54;;;;;;;230.17;74.53;;;;;;;-141.97;64.64;47701.69;4996698;28;20222;-81
2022/10/24 03:37:23;;;;;;;180.87;57.73;;;;;;;-141.97;65.16;47607.50;4996777;28;20171;-82
2022/10/24 03:39:53;;;;;;;357.93;103.97;;;;;;;-141.97;65.50;47576.75;4996816;28;20247;-81
2022/10/24 03:42:23;;;;;;;289.33;92.50;;;;;;;-141.97;65.90;47588.28;4996558;28;20640;-82
2022/10/24 03:44:54;;;;;;;168.77;54.30;;;;;;;-141.97;65.57;47540.22;4996629;28;20202;-81
2022/10/24 03:47:24;;;;;;;92.23;31.93;;;;;;;-141.97;66.16;47576.75;4996495;28;20190;-83
2022/10/24 03:49:54;;;;;;;56.10;22.37;;;;;;;-141.97;66.95;47538.28;4994049;28;20554;-81
2022/10/24 03:52:25;;;;;;;57.57;22.73;;;;;;;-141.97;67.09;47559.44;4996392;28;20168;-81
2022/10/24 03:54:54;;;;;;;54.63;22.53;;;;;;;-141.97;67.38;47592.13;4993886;28;20206;-81
2022/10/24 03:57:25;;;;;;;51.97;22.60;;;;;;;-141.97;67.63;47563.28;4996875;28;20319;-81
2022/10/24 03:59:57;;;;;;;67.63;27.17;;;;;;;-141.97;67.43;47676.69;4996224;28;20195;-81
2022/10/24 04:02:28;;;;;;;90.10;35.47;;;;;;;-141.97;67.34;47569.06;4996410;28;20164;-81
2022/10/24 04:04:56;;;;;;;133.67;43.77;;;;;;;-141.97;67.44;47572.91;4995940;28;20148;-81
2022/10/24 04:07:33;;;;;;;224.57;61.67;;;;;;;-141.97;67.81;47561.38;4996277;28;20160;-80
2022/10/24 04:09:58;;;;;;;199.97;53.83;;;;;;;-141.97;67.22;47605.56;4995817;28;20170;-80
2022/10/24 04:12:27;;;;;;;244.87;63.80;;;;;;;-141.97;67.25;47580.59;4995715;28;20164;-83
2022/10/24 04:14:58;;;;;;;243.57;58.93;;;;;;;-141.97;67.77;47599.81;4967953;28;20247;-80
2022/10/24 04:17:27;;;;;;;121.67;34.37;;;;;;;-141.97;68.27;47584.44;4973828;28;20192;-81
2022/10/24 04:19:57;;;;;;;120.50;36.50;;;;;;;-141.97;68.50;47570.97;4993380;28;20844;-80
2022/10/24 04:22:27;;;;;;;73.53;24.10;;;;;;;-141.97;68.42;47570.97;4993972;28;20179;-80
2022/10/24 04:24:58;;;;;;;66.77;22.90;;;;;;;-141.97;68.62;47588.28;4991578;28;20197;-80
2022/10/24 04:27:28;;;;;;;36.97;15.13;;;;;;;-141.97;68.37;47615.19;4974801;28;20180;-80
2022/10/24 04:29:58;;;;;;;46.70;16.70;;;;;;;-141.97;68.59;47530.59;4974885;28;20215;-80
2022/10/24 04:32:28;;;;;;;47.07;19.53;;;;;;;-141.97;68.48;47599.81;4985017;28;20215;-80
2022/10/24 04:35:00;;;;;;;81.60;37.83;;;;;;;-141.97;68.21;47580.59;4993419;28;20202;-80
2022/10/24 04:37:29;;;;;;;61.53;25.53;;;;;;;-141.97;68.21;47567.13;4993822;28;20198;-82
2022/10/24 04:39:59;;;;;;;67.77;27.50;;;;;;;-141.97;68.83;47544.06;4993950;28;20210;-81
2022/10/24 04:42:29;;;;;;;48.13;18.47;;;;;;;-141.97;68.61;47532.53;4994454;28;20659;-81
2022/10/24 04:45:00;;;;;;;57.53;24.80;;;;;;;-141.97;69.22;47595.97;4994030;28;20246;-80
2022/10/24 04:47:29;;;;;;;59.37;22.27;;;;;;;-141.97;68.88;47588.28;4993152;28;20183;-81
2022/10/24 04:50:00;;;;;;;44.80;19.13;;;;;;;-141.97;69.04;47576.75;4993485;28;20257;-81
2022/10/24 04:52:30;;;;;;;49.13;19.10;;;;;;;-141.97;69.05;47538.28;4993832;28;20289;-81
2022/10/24 04:55:01;;;;;;;50.17;18.00;;;;;;;-141.97;69.34;47707.44;4993851;28;20202;-80
2022/10/24 04:57:30;;;;;;;65.97;27.30;;;;;;;-141.97;68.91;47553.69;4993488;28;20187;-81
2022/10/24 05:00:01;;;;;;;50.20;19.33;;;;;;;-141.97;68.75;47615.19;4993341;28;20273;-80
2022/10/24 05:02:36;;;;;;;38.70;16.30;;;;;;;-141.97;68.22;47559.44;4993091;28;20344;-80
2022/10/24 05:05:02;;;;;;;57.23;25.23;;;;;;;-141.97;67.75;47584.44;4964320;28;20196;-82
2022/10/24 05:07:32;;;;;;;67.73;31.00;;;;;;;-141.97;68.22;47628.63;4988274;28;20194;-81
2022/10/24 05:10:08;;;;;;;84.47;40.83;;;;;;;-141.97;68.05;47569.06;4993647;28;20335;-79
2022/10/24 05:12:33;;;;;;;61.80;29.87;;;;;;;-141.97;68.43;47624.78;4992598;28;20757;-79
2022/10/24 05:15:03;;;;;;;45.93;22.00;;;;;;;-141.97;68.06;47597.88;4984021;28;20239;-81
2022/10/24 05:17:35;;;;;;;29.53;13.67;;;;;;;-141.97;68.31;47567.13;4975248;28;20194;-79
2022/10/24 05:20:03;;;;;;;26.40;12.93;;;;;;;-141.97;68.71;47584.44;4973101;28;20186;-80
2022/10/24 05:22:33;;;;;;;42.53;18.80;;;;;;;-141.97;68.09;47580.59;4973646;28;20282;-80
2022/10/24 05:25:04;;;;;;;33.37;15.37;;;;;;;-141.97;67.21;47569.06;4973706;28;20668;-81
2022/10/24 05:27:34;;;;;;;59.80;28.33;;;;;;;-141.97;66.50;47592.13;4972563;28;20184;-80
2022/10/24 05:30:04;;;;;;;74.70;34.00;;;;;;;-141.97;65.86;47592.13;4972919;28;20698;-80
2022/10/24 05:32:34;;;;;;;101.73;46.80;;;;;;;-141.97;65.43;47565.22;4972358;28;20184;-80
2022/10/24 05:35:05;;;;;;;59.87;31.87;;;;;;;-141.97;64.98;47607.50;4972337;28;20698;-79
2022/10/24 05:37:36;;;;;;;66.90;33.20;;;;;;;-141.97;nan;47724.75;4972873;28;20180;-81
2022/10/24 05:40:09;;;;;;;55.40;29.17;;;;;;;-141.97;64.45;47582.50;4973296;28;20187;-81
2022/10/24 05:42:37;;;;;;;51.97;26.67;;;;;;;-141.97;64.40;47601.72;4971617;28;20176;-81
2022/10/24 05:45:07;;;;;;;43.80;24.47;;;;;;;-141.97;63.96;47538.28;4972114;28;20618;-81
2022/10/24 05:47:36;;;;;;;44.70;23.83;;;;;;;-141.97;63.82;47586.34;4983284;28;20176;-81
2022/10/24 05:50:08;;;;;;;35.67;20.73;;;;;;;-141.97;63.66;47546.00;4993137;28;20185;-81
2022/10/24 05:52:38;;;;;;;80.53;40.30;;;;;;;-141.97;63.15;47551.75;4972666;28;20191;-82
2022/10/24 05:55:08;;;;;;;65.70;30.87;;;;;;;-141.97;62.82;47595.97;4983341;28;20202;-82
2022/10/24 05:57:37;;;;;;;70.47;31.23;;;;;;;-141.97;62.23;47561.38;4987346;28;20298;-80
2022/10/24 06:00:37;;;;;;;55.03;25.03;;;;;;;-141.97;62.32;47580.59;4986341;28;20179;-82
2022/10/24 06:03:10;;;;;;;62.63;27.93;;;;;;;-141.97;62.19;47644.00;4914246;29;20336;-82
2022/10/24 06:05:36;;;;;;;29.77;15.27;;;;;;;-141.97;62.71;47501.78;4913272;29;20201;-82
2022/10/24 06:08:07;;;;;;;61.03;20.70;;;;;;;-141.97;62.83;47582.50;4931228;29;20935;-82
2022/10/24 06:10:37;;;;;;;47.87;17.63;;;;;;;-141.97;62.19;47578.66;4925690;29;20185;-81
2022/10/24 06:13:10;;;;;;;41.27;17.63;;;;;;;-141.97;61.09;47561.38;4914744;29;20226;-81
2022/10/24 06:15:37;;;;;;;44.13;21.67;;;;;;;-141.97;60.48;47546.00;4900605;29;20242;-80
2022/10/24 06:18:07;;;;;;;33.80;16.60;;;;;;;-141.97;59.89;47530.59;4911249;29;20667;-81
2022/10/24 06:20:38;;;;;;;33.43;17.60;;;;;;;-141.97;59.80;47542.16;4911784;29;20188;-80
2022/10/24 06:23:09;;;;;;;22.60;12.20;;;;;;;-141.97;58.53;47580.59;4910562;29;20182;-81
2022/10/24 06:25:41;;;;;;;20.67;10.57;;;;;;;-141.97;58.33;47597.88;4916158;29;20206;-81
2022/10/24 06:28:08;;;;;;;28.13;10.03;;;;;;;-141.97;57.32;47592.13;4916177;29;20190;-82
2022/10/24 06:30:39;;;;;;;13.27;7.17;;;;;;;-141.97;56.62;47607.50;4910876;29;20334;-80
2022/10/24 06:33:09;;;;;;;17.30;8.97;;;;;;;-141.97;55.67;47563.28;4912167;29;20210;-81
2022/10/24 06:35:39;;;;;;;50.30;23.07;;;;;;;-141.97;55.70;47569.06;4910851;29;20960;-81
2022/10/24 06:38:09;;;;;;;23.00;12.17;;;;;;;-141.97;55.63;47569.06;4930607;28;20583;-81
2022/10/24 06:40:41;;;;;;;19.17;10.07;;;;;;;-141.97;55.63;47538.28;4981900;28;20183;-81
2022/10/24 06:43:10;;;;;;;19.50;9.63;;;;;;;-141.97;54.74;47546.00;4989952;28;20290;-81
2022/10/24 06:45:42;;;;;;;12.90;6.00;;;;;;;-141.97;54.28;47576.75;4986001;28;20238;-81
2022/10/24 06:48:14;;;;;;;10.90;5.70;;;;;;;-141.97;54.01;47570.97;4989524;28;20187;-81
2022/10/24 06:50:41;;;;;;;17.67;10.27;;;;;;;-141.97;54.16;47542.16;4989437;28;20187;-83
2022/10/24 06:53:11;;;;;;;17.20;9.07;;;;;;;-141.97;53.70;47576.75;4990396;28;20274;-82
2022/10/24 06:55:42;;;;;;;11.00;6.67;;;;;;;-141.97;53.20;47574.81;4989603;28;20206;-82
2022/10/24 06:58:12;;;;;;;17.03;6.50;;;;;;;-141.97;52.74;47580.59;4989368;28;20194;-82
2022/10/24 07:00:43;;;;;;;11.13;5.70;;;;;;;-141.97;53.12;47546.00;4979414;28;20192;-81
2022/10/24 07:03:15;;;;;;;12.67;6.10;;;;;;;-141.97;51.71;47547.91;4949864;29;20184;-82
2022/10/24 07:05:43;;;;;;;16.87;9.00;;;;;;;-141.97;50.99;47572.91;4977931;28;20226;-82
2022/10/24 07:08:18;;;;;;;15.83;9.20;;;;;;;-141.97;50.72;47551.75;4985770;28;20847;-82
2022/10/24 07:10:43;;;;;;;15.23;7.90;;;;;;;-141.97;49.87;47565.22;4988859;28;20217;-82
2022/10/24 07:13:14;;;;;;;14.67;7.57;;;;;;;-141.97;49.93;47553.69;4989289;28;20679;-83
2022/10/24 07:15:53;;;;;;;16.80;7.90;;;;;;;-141.97;49.02;47553.69;4965468;28;20324;-82
2022/10/24 07:18:18;;;;;;;17.73;9.40;;;;;;;-141.97;48.65;47584.44;4989335;28;20183;-82
2022/10/24 07:20:48;;;;;;;15.27;8.83;;;;;;;-141.97;47.29;47501.78;4996749;28;20240;-82
